Latest Weather Observations for Maryborough

IDQ60801

Issued at 4:21 am EST Sunday 21 April 2019 (issued every 10 minutes, with the page automatically refreshed every 10 minutes)

About weather observations | Map of weather stations | Latest weather observations for QLD | Other Formats
Station Details ID: 040126 Name: MARYBOROUGH Lat: -25.51 Lon: 152.72 Height: 8.98 m
Data from the previous 72 hours. | See also: Recent months at Maryborough
Date/Time
EST
Temp
°C
App
Temp
°C
Dew
Point
°C
Rel
Hum
%
Delta-T
°C
Wind Press
QNH
hPa
Press
MSL
hPa
Rain since
9am
mm
Dir  Spd
km/h
Gust
km/h
Spd
kts
Gust
kts
21/04:00am 21.5 23.3 20.3 93 0.8 SE 11 17 6 9 1017.6 - 14.4
21/03:30am 21.5 22.8 20.1 92 0.9 SE 13 17 7 9 1017.7 - 14.4
21/03:00am 21.6 22.4 20.6 94 0.6 ESE 17 26 9 14 1017.5 1017.4 14.4
21/02:32am 21.6 22.9 20.8 95 0.5 SE 15 22 8 12 1018.0 - 13.8
21/02:30am 21.6 22.9 20.8 95 0.5 SE 15 22 8 12 1018.0 - 13.8
21/02:08am 21.4 22.8 20.4 94 0.6 ESE 13 19 7 10 1018.2 - 12.0
21/02:00am 21.3 22.5 19.9 92 0.9 E 13 20 7 11 1018.2 - 10.6
21/01:30am 21.8 24.0 21.1 96 0.5 SE 11 15 6 8 1018.2 - 10.4
21/01:00am 21.4 23.4 20.7 96 0.5 SE 11 15 6 8 1018.3 - 10.2
21/12:30am 21.2 22.8 20.7 97 0.3 SE 13 20 7 11 1018.8 - 10.0
21/12:00am 21.1 21.8 20.4 96 0.4 SE 17 22 9 12 1018.7 1018.6 10.0
 
Date/Time
EST
Temp
°C
App
Temp
°C
Dew
Point
°C
Rel
Hum
%
Delta-T
°C
Wind Press
QNH
hPa
Press
MSL
hPa
Rain since
9am
mm
Dir  Spd
km/h
Gust
km/h
Spd
kts
Gust
kts
20/11:50pm 21.2 22.7 20.5 96 0.5 SE 13 22 7 12 1018.8 - 9.6
20/11:30pm 21.1 22.5 20.3 95 0.5 SE 13 19 7 10 1019.1 - 9.4
20/11:00pm 21.0 21.4 19.8 93 0.8 SSE 17 22 9 12 1019.1 - 9.4
20/10:30pm 21.3 21.9 20.3 94 0.6 SSE 17 24 9 13 1019.5 - 9.4
20/10:00pm 21.4 21.6 20.6 95 0.5 SSE 20 28 11 15 1019.5 - 9.2
20/09:33pm 21.3 21.6 20.3 94 0.6 SE 19 26 10 14 1019.4 - 8.4
20/09:30pm 21.1 20.9 19.7 92 0.9 SE 20 32 11 17 1019.6 - 8.4
20/09:22pm 21.3 20.7 20.5 95 0.5 SE 24 32 13 17 1019.5 - 8.4
20/09:00pm 21.5 22.4 20.8 96 0.5 S 17 24 9 13 1019.3 1019.2 7.2
20/08:46pm 21.5 22.8 20.8 96 0.5 S 15 22 8 12 1019.4 - 7.0
20/08:30pm 21.5 23.2 21.0 97 0.3 SSE 13 17 7 9 1019.3 - 7.0
20/08:29pm 21.5 23.2 21.0 97 0.3 SSE 13 17 7 9 1019.3 - 6.8
20/08:00pm 21.4 22.6 20.6 95 0.5 S 15 22 8 12 1019.2 - 5.8
20/07:30pm 21.6 23.8 21.1 97 0.3 S 11 15 6 8 1019.1 - 5.2
20/07:00pm 21.2 23.4 20.4 95 0.5 SE 9 17 5 9 1018.7 - 5.0
20/06:45pm 21.0 22.5 19.8 93 0.8 ESE 11 19 6 10 1018.8 - 4.4
20/06:33pm 20.9 21.1 19.4 91 1.0 SE 17 24 9 13 1018.5 - 4.4
20/06:30pm 20.9 20.7 19.4 91 1.0 SE 19 28 10 15 1018.5 - 4.2
20/06:21pm 21.6 22.2 20.2 92 0.9 SSE 17 35 9 19 1018.4 - 3.0
20/06:18pm 22.2 24.0 21.2 94 0.7 S 13 19 7 10 1018.4 - 1.2
20/06:00pm 22.2 23.8 20.7 91 1.0 SSE 13 17 7 9 1018.1 1018.0 0.8
20/05:30pm 22.7 24.8 21.0 90 1.1 SSE 11 15 6 8 1017.9 - 0.4
20/05:00pm 23.2 24.7 20.5 85 1.8 SE 13 17 7 9 1017.8 - 0.2
20/04:30pm 24.0 24.0 20.1 79 2.5 SE 20 26 11 14 1017.7 - 0.2
20/04:00pm 24.5 24.4 20.0 76 2.9 SE 20 26 11 14 1017.7 - 0.2
20/03:30pm 24.3 24.5 21.4 84 1.9 SE 22 35 12 19 1017.6 - 0.2
20/03:00pm 26.1 26.1 20.2 70 3.8 SE 20 33 11 18 1017.2 1017.1 0.2
20/02:30pm 25.5 24.7 20.1 72 3.5 SE 24 33 13 18 1017.3 - 0.2
20/02:05pm 24.3 22.5 19.6 75 3.0 SE 28 46 15 25 1017.5 - 0.2
20/02:00pm 27.1 26.4 20.2 66 4.5 ESE 24 33 13 18 1017.4 - 0.0
20/01:30pm 26.9 25.2 19.0 62 5.1 ESE 26 41 14 22 1017.5 - 0.0
20/01:00pm 27.4 25.3 18.9 59 5.5 SE 28 41 15 22 1017.7 - 0.0
20/12:30pm 26.8 25.7 20.2 67 4.3 ESE 26 35 14 19 1018.1 - 0.0
20/12:00pm 27.4 25.8 20.0 64 4.8 ESE 28 39 15 21 1018.6 1018.5 0.0
20/11:30am 27.6 27.5 19.9 63 5.0 ESE 20 32 11 17 1018.9 - 0.0
20/11:00am 26.9 26.3 20.5 68 4.2 SE 24 37 13 20 1019.5 - 0.0
20/10:30am 26.5 25.6 20.6 70 3.9 SE 26 37 14 20 1019.9 - 0.0
20/10:00am 25.8 24.0 20.4 72 3.5 SE 30 39 16 21 1020.1 - 0.0
20/09:30am 26.1 25.3 20.0 69 4.0 ESE 24 33 13 18 1020.2 - 0.0
20/09:00am 25.4 24.7 20.2 73 3.4 ESE 24 35 13 19 1020.1 1020.0 27.8
20/08:30am 23.4 22.1 19.1 77 2.7 SE 24 33 13 18 1020.3 - 27.8
20/08:00am 23.2 24.6 21.1 88 1.4 S 15 20 8 11 1019.9 - 27.8
20/07:30am 22.3 25.6 21.8 97 0.3 SSE 7 11 4 6 1019.7 - 27.8
20/07:00am 21.5 23.6 21.0 97 0.3 SSE 11 13 6 7 1019.4 - 27.4
20/06:49am 21.4 23.5 20.9 97 0.3 SSE 11 15 6 8 1019.2 - 27.4
20/06:31am 21.2 23.2 20.7 97 0.3 S 11 17 6 9 1018.9 - 27.4
20/06:30am 21.2 23.2 20.7 97 0.3 S 11 17 6 9 1018.9 - 27.4
20/06:09am 21.1 23.3 20.4 96 0.5 SW 9 15 5 8 1018.7 - 26.8
20/06:00am 21.2 23.1 20.5 96 0.5 S 11 15 6 8 1018.6 1018.5 26.8
20/05:50am 21.2 23.8 20.4 95 0.5 SSE 7 9 4 5 1018.4 - 26.8
20/05:30am 21.6 21.3 20.4 93 0.8 ESE 22 37 12 20 1018.2 - 26.4
20/05:00am 21.3 22.9 19.9 92 0.9 S 11 17 6 9 1018.2 - 25.8
20/04:30am 21.3 21.2 19.9 92 0.9 SE 20 30 11 16 1017.8 - 25.8
20/04:00am 21.1 21.9 20.6 97 0.3 S 17 22 9 12 1018.1 - 25.8
20/03:30am 20.8 22.2 20.3 97 0.3 S 13 17 7 9 1018.1 - 25.2
20/03:00am 20.7 22.3 20.0 96 0.4 SE 11 13 6 7 1018.3 1018.2 25.0
20/02:53am 20.7 21.9 20.0 96 0.4 SE 13 17 7 9 1018.2 - 25.0
20/02:39am 20.8 22.9 20.1 96 0.4 SSE 9 15 5 8 1018.6 - 25.0
20/02:35am 20.8 22.5 20.1 96 0.4 SSE 11 17 6 9 1018.6 - 25.0
20/02:30am 20.7 22.0 20.2 97 0.3 SSE 13 19 7 10 1018.4 - 24.2
20/02:00am 20.5 21.7 20.0 97 0.3 SSE 13 15 7 8 1018.5 - 23.4
20/01:30am 20.5 20.9 19.8 96 0.4 SE 17 20 9 11 1018.7 - 23.4
20/01:24am 20.3 20.6 19.6 96 0.4 SE 17 22 9 12 1018.8 - 23.4
20/01:03am 20.3 20.3 19.8 97 0.3 SE 19 35 10 19 1019.5 - 22.4
20/01:00am 20.3 21.4 19.6 96 0.4 S 13 19 7 10 1019.2 - 21.0
20/12:30am 20.1 21.1 19.4 96 0.4 S 13 17 7 9 1019.2 - 20.8
20/12:00am 20.4 21.9 19.7 96 0.4 S 11 17 6 9 1019.7 1019.6 20.8
 
Date/Time
EST
Temp
°C
App
Temp
°C
Dew
Point
°C
Rel
Hum
%
Delta-T
°C
Wind Press
QNH
hPa
Press
MSL
hPa
Rain since
9am
mm
Dir  Spd
km/h
Gust
km/h
Spd
kts
Gust
kts
19/11:30pm 20.4 21.1 19.7 96 0.4 S 15 20 8 11 1019.8 - 20.6
19/11:00pm 20.3 21.7 19.6 96 0.4 S 11 15 6 8 1020.1 - 20.6
19/10:30pm 20.7 21.7 20.2 97 0.3 S 15 20 8 11 1020.3 - 20.2
19/10:00pm 20.7 21.9 20.0 96 0.4 S 13 17 7 9 1020.3 - 20.0
19/09:30pm 20.6 22.2 19.9 96 0.4 S 11 15 6 8 1020.4 - 20.0
19/09:00pm 20.9 22.2 20.2 96 0.4 S 13 17 7 9 1020.3 1020.2 20.0
19/08:30pm 20.7 22.3 19.9 95 0.5 SSW 11 17 6 9 1020.3 - 20.0
19/08:00pm 20.8 22.9 20.1 96 0.4 SSW 9 11 5 6 1020.2 - 20.0
19/07:49pm 20.7 22.7 20.0 96 0.4 S 9 15 5 8 1020.1 - 20.0
19/07:31pm 20.7 22.8 20.2 97 0.3 S 9 13 5 7 1020.1 - 20.0
19/07:30pm 20.7 23.1 20.0 96 0.4 S 7 11 4 6 1020.1 - 19.2
19/07:00pm 20.1 21.7 19.1 94 0.6 SW 9 11 5 6 1019.8 - 18.4
19/06:30pm 20.1 21.7 19.1 94 0.6 SSW 9 11 5 6 1019.5 - 18.4
19/06:21pm 19.9 21.7 18.7 93 0.7 SSE 7 11 4 6 1019.4 - 18.4
19/06:00pm 19.8 19.9 18.3 91 0.9 ESE 15 26 8 14 1019.5 1019.4 17.4
19/05:51pm 20.2 19.5 18.7 91 0.9 ESE 20 28 11 15 1019.7 - 14.4
19/05:30pm 20.7 21.6 19.2 91 0.9 SSE 13 19 7 10 1019.1 - 12.4
19/05:24pm 20.8 21.3 19.3 91 0.9 SSE 15 19 8 10 1019.3 - 12.4
19/05:04pm 21.1 19.1 18.3 84 1.7 SSE 26 32 14 17 1019.4 - 11.0
19/05:00pm 21.9 22.5 18.5 81 2.1 E 13 24 7 13 1019.3 - 10.0
19/04:30pm 23.6 22.2 18.7 74 3.1 SSE 24 32 13 17 1018.7 - 10.0
19/04:00pm 24.2 23.7 18.6 71 3.5 SE 19 30 10 16 1018.4 - 10.0
19/03:30pm 24.0 26.9 21.7 87 1.5 SE 9 11 5 6 1018.3 - 9.8
19/03:00pm 22.3 25.3 20.9 92 0.9 ESE 6 7 3 4 1018.5 1018.4 9.8
19/02:33pm 22.0 24.4 20.8 93 0.8 ESE 9 11 5 6 1018.5 - 9.8
19/02:30pm 21.8 24.1 20.6 93 0.8 ESE 9 13 5 7 1018.6 - 9.8
19/02:11pm 20.8 18.6 18.6 87 1.4 SE 28 46 15 25 1019.0 - 7.8
19/02:07pm 21.2 19.5 18.2 83 1.9 SSE 24 46 13 25 1019.1 - 3.8
19/02:00pm 25.1 25.3 20.1 74 3.2 S 19 22 10 12 1018.7 - 0.0
19/01:30pm 24.6 24.8 20.1 76 2.9 SSE 19 26 10 14 1019.1 - 0.0
19/01:00pm 23.0 21.0 19.2 79 2.4 SE 28 39 15 21 1019.5 - 0.0
19/12:30pm 25.8 25.8 20.1 71 3.7 SE 20 30 11 16 1019.7 - 0.0
19/12:00pm 24.6 23.6 19.7 74 3.2 SSE 24 37 13 20 1020.2 1020.1 0.0
19/11:35am 23.7 21.1 17.7 69 3.7 SE 28 50 15 27 1020.6 - 0.0
19/11:30am 26.5 24.9 19.1 64 4.8 SE 26 44 14 24 1020.5 - 0.0
19/11:00am 26.2 23.9 19.3 65 4.4 SSE 30 41 16 22 1021.1 - 0.0
19/10:30am 27.3 26.7 20.6 67 4.4 SSE 24 35 13 19 1021.3 - 0.0
19/10:00am 25.3 22.9 18.2 64 4.5 SE 28 39 15 21 1021.5 - 0.0
19/09:30am 25.5 24.0 19.4 69 3.9 SSE 26 35 14 19 1021.4 - 0.0
19/09:00am 24.6 22.5 19.0 71 3.6 SSE 28 37 15 20 1021.5 1021.4 0.0
19/08:30am 23.1 21.2 18.6 76 2.8 SSE 26 37 14 20 1021.4 - 0.0
19/08:00am 21.7 20.8 18.3 81 2.1 S 20 28 11 15 1021.4 - 0.0
19/07:30am 20.4 19.4 18.0 86 1.5 S 20 28 11 15 1021.1 - 0.0
19/07:00am 19.1 18.0 17.2 89 1.2 S 19 24 10 13 1020.9 - 0.0
19/06:30am 18.1 17.2 16.8 92 0.8 S 17 22 9 12 1020.8 - 0.0
19/06:00am 18.0 17.5 16.9 93 0.7 S 15 20 8 11 1020.5 1020.4 0.0
19/05:30am 17.9 17.3 16.6 92 0.8 S 15 17 8 9 1020.2 - 0.0
19/05:00am 18.0 17.4 16.7 92 0.8 S 15 19 8 10 1020.1 - 0.0
19/04:30am 18.4 17.5 16.9 91 0.9 S 17 22 9 12 1019.9 - 0.0
19/04:00am 18.3 17.8 16.8 91 0.9 S 15 20 8 11 1019.9 - 0.0
19/03:30am 18.4 17.8 16.7 90 1.0 S 15 22 8 12 1019.9 - 0.0
19/03:00am 18.8 17.9 16.9 89 1.1 S 17 22 9 12 1020.1 1020.0 0.0
19/02:30am 18.7 17.8 16.8 89 1.1 S 17 20 9 11 1020.3 - 0.0
19/02:00am 18.9 18.4 17.0 89 1.1 S 15 22 8 12 1020.6 - 0.0
19/01:30am 18.6 18.1 16.9 90 1.0 S 15 20 8 11 1020.9 - 0.0
19/01:00am 18.3 18.1 16.6 90 1.0 S 13 15 7 8 1021.2 - 0.0
19/12:30am 18.5 18.3 16.8 90 1.0 S 13 17 7 9 1021.7 - 0.0
19/12:00am 18.6 19.5 16.6 88 1.2 SSE 7 9 4 5 1022.0 1021.9 0.0
 
Date/Time
EST
Temp
°C
App
Temp
°C
Dew
Point
°C
Rel
Hum
%
Delta-T
°C
Wind Press
QNH
hPa
Press
MSL
hPa
Rain since
9am
mm
Dir  Spd
km/h
Gust
km/h
Spd
kts
Gust
kts
18/11:30pm 19.4 19.6 17.7 90 1.0 S 13 17 7 9 1022.1 - 0.0
18/11:00pm 19.0 19.0 17.3 90 1.0 S 13 15 7 8 1022.3 - 0.0
18/10:30pm 19.0 19.6 17.7 92 0.8 S 11 13 6 7 1022.3 - 0.0
18/10:00pm 18.5 18.8 17.0 91 0.9 S 11 13 6 7 1022.4 - 0.0
18/09:30pm 18.5 19.1 16.7 89 1.1 S 9 11 5 6 1022.4 - 0.0
18/09:00pm 18.7 19.3 16.7 88 1.2 S 9 11 5 6 1022.5 1022.4 0.0
18/08:30pm 19.3 19.9 16.9 86 1.5 S 9 11 5 6 1022.2 - 0.0
18/08:00pm 19.9 20.3 17.3 85 1.6 S 11 15 6 8 1021.9 - 0.0
18/07:30pm 20.0 20.3 17.0 83 1.8 S 11 17 6 9 1021.6 - 0.0
18/07:00pm 20.3 20.2 16.9 81 2.1 SSE 13 17 7 9 1021.2 - 0.0
18/06:30pm 20.7 20.9 16.7 78 2.4 SSE 11 17 6 9 1020.9 - 0.0
18/06:00pm 22.0 21.1 16.9 73 3.1 SSE 17 22 9 12 1020.5 1020.4 0.0
18/05:30pm 22.8 21.7 17.3 71 3.4 SE 19 26 10 14 1019.9 - 0.0
18/05:00pm 23.6 22.4 17.6 69 3.7 SE 20 28 11 15 1019.7 - 0.0
18/04:30pm 24.0 21.7 17.5 67 4.0 ESE 26 35 14 19 1019.4 - 0.0
18/04:00pm 25.5 23.7 16.9 59 5.3 ESE 22 32 12 17 1019.1 - 0.0
18/03:30pm 25.9 23.2 16.7 57 5.7 SE 26 35 14 19 1019.1 - 0.0
18/03:00pm 26.5 23.5 16.7 55 6.1 SE 28 37 15 20 1019.2 1019.1 0.0
18/02:30pm 26.8 24.6 17.0 55 6.1 ESE 24 37 13 20 1019.2 - 0.0
18/02:00pm 26.7 23.6 16.6 54 6.3 SE 28 43 15 23 1019.2 - 0.0
18/01:30pm 27.0 23.9 14.4 46 7.5 SE 24 37 13 20 1019.4 - 0.0
18/01:00pm 27.2 24.0 15.2 47 7.3 SE 26 35 14 19 1019.7 - 0.0
18/12:30pm 26.5 23.5 15.8 51 6.5 SSE 26 33 14 18 1020.0 - 0.0
18/12:00pm 26.4 23.9 17.2 57 5.7 SE 26 35 14 19 1020.4 1020.3 0.0
18/11:30am 25.5 22.4 15.5 54 6.1 SSE 26 35 14 19 1020.8 - 0.0
18/11:00am 26.8 24.0 16.4 53 6.4 SE 26 35 14 19 1021.3 - 0.0
18/10:30am 26.0 23.6 16.5 55 5.9 SE 24 33 13 18 1021.6 - 0.0
18/10:00am 25.4 23.9 17.6 62 4.9 SE 22 32 12 17 1021.8 - 0.0
18/09:30am 24.5 22.9 17.5 65 4.4 SSE 22 33 12 18 1021.8 - 0.0
18/09:00am 24.3 23.6 18.7 71 3.5 SSE 20 28 11 15 1021.7 1021.6 0.2
18/08:30am 22.6 21.8 17.9 75 2.9 S 19 26 10 14 1021.5 - 0.2
18/08:00am 21.3 20.5 17.9 81 2.1 S 19 24 10 13 1021.5 - 0.2
18/07:30am 19.7 19.0 17.3 86 1.5 S 17 22 9 12 1021.2 - 0.2
18/07:00am 18.4 17.5 16.9 91 0.9 S 17 22 9 12 1021.0 - 0.2
18/06:30am 17.3 16.6 16.3 94 0.6 S 15 17 8 9 1020.7 - 0.2
18/06:00am 16.9 16.4 15.8 93 0.6 S 13 15 7 8 1020.2 1020.1 0.2
18/05:30am 17.1 16.6 16.0 93 0.6 S 13 17 7 9 1020.1 - 0.2
18/05:00am 17.1 16.6 15.8 92 0.8 S 13 15 7 8 1019.8 - 0.2
18/04:30am 17.2 17.1 15.9 92 0.8 S 11 15 6 8 1019.8 - 0.2

Other formats

Comma delimited format used in spreadsheet applications
http://www.bom.gov.au/fwo/IDQ60801/IDQ60801.94567.axf

JavaScript Object Notation format (JSON) in row-major order
http://www.bom.gov.au/fwo/IDQ60801/IDQ60801.94567.json

Data quality

Most of these data are generated automatically and are frequently updated. Quality checks on data are not normally performed. It is possible for incorrect values to appear. Refer to information at About Latest Weather Observations and please check the disclaimer before using these data.